sensor_id;sensor_type;location;lat;lon;timestamp;P1;durP1;ratioP1;P2;durP2;ratioP2
3783;SDS011;1907;49.238;9.262;2022-12-07T00:01:05;4.10;;;4.00;;
3783;SDS011;1907;49.238;9.262;2022-12-07T00:03:35;5.30;;;5.10;;
3783;SDS011;1907;49.238;9.262;2022-12-07T00:06:01;6.17;;;5.97;;
3783;SDS011;1907;49.238;9.262;2022-12-07T00:08:27;5.83;;;5.63;;
3783;SDS011;1907;49.238;9.262;2022-12-07T00:10:54;5.70;;;5.50;;
3783;SDS011;1907;49.238;9.262;2022-12-07T00:13:20;5.57;;;5.37;;
3783;SDS011;1907;49.238;9.262;2022-12-07T00:15:45;5.37;;;4.97;;
3783;SDS011;1907;49.238;9.262;2022-12-07T00:18:11;5.67;;;5.47;;
3783;SDS011;1907;49.238;9.262;2022-12-07T00:20:36;5.67;;;5.13;;
3783;SDS011;1907;49.238;9.262;2022-12-07T00:23:02;5.33;;;5.03;;
3783;SDS011;1907;49.238;9.262;2022-12-07T00:25:27;5.43;;;5.23;;
3783;SDS011;1907;49.238;9.262;2022-12-07T00:27:54;5.77;;;4.57;;
3783;SDS011;1907;49.238;9.262;2022-12-07T00:30:21;4.40;;;4.20;;
3783;SDS011;1907;49.238;9.262;2022-12-07T00:32:47;6.40;;;5.17;;
3783;SDS011;1907;49.238;9.262;2022-12-07T00:35:13;6.53;;;6.00;;
3783;SDS011;1907;49.238;9.262;2022-12-07T00:37:39;4.90;;;4.70;;
3783;SDS011;1907;49.238;9.262;2022-12-07T00:40:05;5.10;;;4.90;;
3783;SDS011;1907;49.238;9.262;2022-12-07T00:42:31;6.03;;;5.73;;
3783;SDS011;1907;49.238;9.262;2022-12-07T00:44:56;6.97;;;6.67;;
3783;SDS011;1907;49.238;9.262;2022-12-07T00:47:22;6.50;;;6.20;;
3783;SDS011;1907;49.238;9.262;2022-12-07T00:49:48;6.23;;;6.03;;
3783;SDS011;1907;49.238;9.262;2022-12-07T00:52:13;6.60;;;6.30;;
3783;SDS011;1907;49.238;9.262;2022-12-07T00:54:39;6.23;;;6.03;;
3783;SDS011;1907;49.238;9.262;2022-12-07T00:57:05;6.20;;;5.90;;
3783;SDS011;1907;49.238;9.262;2022-12-07T00:59:30;6.40;;;6.10;;
3783;SDS011;1907;49.238;9.262;2022-12-07T01:01:56;5.63;;;5.33;;
3783;SDS011;1907;49.238;9.262;2022-12-07T01:04:22;6.63;;;6.33;;
3783;SDS011;1907;49.238;9.262;2022-12-07T01:06:47;5.93;;;5.37;;
3783;SDS011;1907;49.238;9.262;2022-12-07T01:09:13;5.73;;;5.50;;
3783;SDS011;1907;49.238;9.262;2022-12-07T01:11:38;5.93;;;5.73;;
3783;SDS011;1907;49.238;9.262;2022-12-07T01:14:04;6.00;;;5.60;;
3783;SDS011;1907;49.238;9.262;2022-12-07T01:16:30;5.57;;;5.30;;
3783;SDS011;1907;49.238;9.262;2022-12-07T01:18:57;6.60;;;6.20;;
3783;SDS011;1907;49.238;9.262;2022-12-07T01:21:30;5.87;;;5.67;;
3783;SDS011;1907;49.238;9.262;2022-12-07T01:24:03;5.47;;;5.17;;
3783;SDS011;1907;49.238;9.262;2022-12-07T01:26:30;4.47;;;4.33;;
3783;SDS011;1907;49.238;9.262;2022-12-07T01:28:56;6.00;;;5.80;;
3783;SDS011;1907;49.238;9.262;2022-12-07T01:31:24;6.57;;;6.10;;
3783;SDS011;1907;49.238;9.262;2022-12-07T01:33:52;6.30;;;6.00;;
3783;SDS011;1907;49.238;9.262;2022-12-07T01:36:23;5.70;;;5.50;;
3783;SDS011;1907;49.238;9.262;2022-12-07T01:38:50;5.97;;;5.53;;
3783;SDS011;1907;49.238;9.262;2022-12-07T01:41:19;6.90;;;6.70;;
3783;SDS011;1907;49.238;9.262;2022-12-07T01:46:43;6.27;;;5.97;;
3783;SDS011;1907;49.238;9.262;2022-12-07T01:49:16;8.70;;;7.80;;
3783;SDS011;1907;49.238;9.262;2022-12-07T01:52:01;36.60;;;19.80;;
3783;SDS011;1907;49.238;9.262;2022-12-07T01:54:35;14.97;;;13.37;;
3783;SDS011;1907;49.238;9.262;2022-12-07T01:57:01;7.53;;;7.03;;
3783;SDS011;1907;49.238;9.262;2022-12-07T01:59:28;6.87;;;6.40;;
3783;SDS011;1907;49.238;9.262;2022-12-07T02:01:54;6.80;;;6.50;;
3783;SDS011;1907;49.238;9.262;2022-12-07T02:04:21;7.50;;;7.07;;
3783;SDS011;1907;49.238;9.262;2022-12-07T02:06:48;7.37;;;6.97;;
3783;SDS011;1907;49.238;9.262;2022-12-07T02:09:14;5.73;;;5.53;;
3783;SDS011;1907;49.238;9.262;2022-12-07T02:11:40;5.33;;;5.13;;
3783;SDS011;1907;49.238;9.262;2022-12-07T02:14:06;5.73;;;5.53;;
3783;SDS011;1907;49.238;9.262;2022-12-07T02:16:34;8.80;;;7.97;;
3783;SDS011;1907;49.238;9.262;2022-12-07T02:30:22;6.10;;;5.80;;
3783;SDS011;1907;49.238;9.262;2022-12-07T02:33:05;7.03;;;6.83;;
3783;SDS011;1907;49.238;9.262;2022-12-07T02:38:16;6.03;;;5.83;;
3783;SDS011;1907;49.238;9.262;2022-12-07T02:40:55;6.63;;;6.10;;
3783;SDS011;1907;49.238;9.262;2022-12-07T02:43:42;6.57;;;6.27;;
3783;SDS011;1907;49.238;9.262;2022-12-07T02:46:13;6.53;;;6.33;;
3783;SDS011;1907;49.238;9.262;2022-12-07T02:48:41;6.70;;;6.50;;
3783;SDS011;1907;49.238;9.262;2022-12-07T02:51:09;6.17;;;5.87;;
3783;SDS011;1907;49.238;9.262;2022-12-07T03:09:43;6.37;;;6.07;;
3783;SDS011;1907;49.238;9.262;2022-12-07T03:12:18;7.00;;;6.70;;
3783;SDS011;1907;49.238;9.262;2022-12-07T03:15:12;7.60;;;7.40;;
3783;SDS011;1907;49.238;9.262;2022-12-07T03:17:37;7.53;;;7.20;;
3783;SDS011;1907;49.238;9.262;2022-12-07T03:20:09;7.43;;;7.13;;
3783;SDS011;1907;49.238;9.262;2022-12-07T03:22:38;7.70;;;7.40;;
3783;SDS011;1907;49.238;9.262;2022-12-07T03:25:08;7.90;;;7.57;;
3783;SDS011;1907;49.238;9.262;2022-12-07T03:27:44;7.97;;;7.43;;
3783;SDS011;1907;49.238;9.262;2022-12-07T03:30:32;8.67;;;8.27;;
3783;SDS011;1907;49.238;9.262;2022-12-07T03:33:08;8.70;;;8.30;;
3783;SDS011;1907;49.238;9.262;2022-12-07T03:35:45;7.53;;;7.23;;
3783;SDS011;1907;49.238;9.262;2022-12-07T03:38:23;8.20;;;7.90;;
3783;SDS011;1907;49.238;9.262;2022-12-07T03:41:09;6.77;;;6.37;;
3783;SDS011;1907;49.238;9.262;2022-12-07T03:43:41;9.00;;;8.60;;
3783;SDS011;1907;49.238;9.262;2022-12-07T03:51:25;8.20;;;7.90;;
3783;SDS011;1907;49.238;9.262;2022-12-07T03:54:10;9.47;;;8.73;;
3783;SDS011;1907;49.238;9.262;2022-12-07T03:56:39;7.80;;;7.50;;
3783;SDS011;1907;49.238;9.262;2022-12-07T03:59:08;8.83;;;8.13;;
3783;SDS011;1907;49.238;9.262;2022-12-07T04:01:34;8.47;;;8.07;;
3783;SDS011;1907;49.238;9.262;2022-12-07T04:03:59;8.20;;;7.80;;
3783;SDS011;1907;49.238;9.262;2022-12-07T04:06:25;8.00;;;7.30;;
3783;SDS011;1907;49.238;9.262;2022-12-07T04:08:50;8.50;;;8.00;;
3783;SDS011;1907;49.238;9.262;2022-12-07T04:11:16;7.93;;;7.50;;
3783;SDS011;1907;49.238;9.262;2022-12-07T04:13:41;8.97;;;8.40;;
3783;SDS011;1907;49.238;9.262;2022-12-07T04:16:25;8.17;;;7.77;;
3783;SDS011;1907;49.238;9.262;2022-12-07T04:18:52;9.53;;;8.93;;
3783;SDS011;1907;49.238;9.262;2022-12-07T04:25:24;6.80;;;6.47;;
3783;SDS011;1907;49.238;9.262;2022-12-07T04:27:49;12.10;;;8.03;;
3783;SDS011;1907;49.238;9.262;2022-12-07T04:30:15;8.93;;;8.33;;
3783;SDS011;1907;49.238;9.262;2022-12-07T04:32:41;7.63;;;7.13;;
3783;SDS011;1907;49.238;9.262;2022-12-07T04:35:07;8.37;;;7.93;;
3783;SDS011;1907;49.238;9.262;2022-12-07T04:37:33;8.33;;;7.87;;
3783;SDS011;1907;49.238;9.262;2022-12-07T04:39:58;8.53;;;8.23;;
3783;SDS011;1907;49.238;9.262;2022-12-07T04:42:24;8.13;;;7.83;;
3783;SDS011;1907;49.238;9.262;2022-12-07T04:44:49;8.03;;;7.40;;
3783;SDS011;1907;49.238;9.262;2022-12-07T04:47:16;7.30;;;6.90;;
3783;SDS011;1907;49.238;9.262;2022-12-07T04:49:41;7.47;;;7.17;;
3783;SDS011;1907;49.238;9.262;2022-12-07T04:52:07;8.80;;;8.17;;
3783;SDS011;1907;49.238;9.262;2022-12-07T04:54:32;8.07;;;7.67;;
3783;SDS011;1907;49.238;9.262;2022-12-07T04:56:58;9.63;;;9.03;;
3783;SDS011;1907;49.238;9.262;2022-12-07T04:59:24;8.83;;;8.43;;
3783;SDS011;1907;49.238;9.262;2022-12-07T05:01:49;8.70;;;8.10;;
3783;SDS011;1907;49.238;9.262;2022-12-07T05:04:15;8.70;;;8.30;;
3783;SDS011;1907;49.238;9.262;2022-12-07T05:06:42;8.83;;;8.43;;
3783;SDS011;1907;49.238;9.262;2022-12-07T05:09:08;8.33;;;8.00;;
3783;SDS011;1907;49.238;9.262;2022-12-07T05:11:33;9.63;;;9.23;;
3783;SDS011;1907;49.238;9.262;2022-12-07T05:16:30;9.13;;;8.47;;
3783;SDS011;1907;49.238;9.262;2022-12-07T05:18:56;8.93;;;8.20;;
3783;SDS011;1907;49.238;9.262;2022-12-07T05:21:22;9.00;;;8.50;;
3783;SDS011;1907;49.238;9.262;2022-12-07T05:23:48;9.00;;;8.40;;
3783;SDS011;1907;49.238;9.262;2022-12-07T05:26:14;9.63;;;9.23;;
3783;SDS011;1907;49.238;9.262;2022-12-07T05:28:39;10.33;;;9.50;;
3783;SDS011;1907;49.238;9.262;2022-12-07T05:31:05;10.13;;;9.47;;
3783;SDS011;1907;49.238;9.262;2022-12-07T05:33:30;9.30;;;8.70;;
3783;SDS011;1907;49.238;9.262;2022-12-07T05:35:56;10.20;;;9.30;;
3783;SDS011;1907;49.238;9.262;2022-12-07T05:38:21;11.70;;;9.50;;
3783;SDS011;1907;49.238;9.262;2022-12-07T05:40:47;13.30;;;8.80;;
3783;SDS011;1907;49.238;9.262;2022-12-07T05:43:13;9.60;;;9.10;;
3783;SDS011;1907;49.238;9.262;2022-12-07T05:45:38;10.67;;;9.83;;
3783;SDS011;1907;49.238;9.262;2022-12-07T05:48:04;7.60;;;7.20;;
3783;SDS011;1907;49.238;9.262;2022-12-07T05:50:30;9.43;;;8.63;;
3783;SDS011;1907;49.238;9.262;2022-12-07T05:52:55;8.30;;;8.00;;
3783;SDS011;1907;49.238;9.262;2022-12-07T05:55:21;8.10;;;7.43;;
3783;SDS011;1907;49.238;9.262;2022-12-07T05:57:46;7.90;;;7.47;;
3783;SDS011;1907;49.238;9.262;2022-12-07T06:00:31;9.13;;;8.73;;
3783;SDS011;1907;49.238;9.262;2022-12-07T06:02:57;8.27;;;7.83;;
3783;SDS011;1907;49.238;9.262;2022-12-07T06:05:22;9.13;;;8.70;;
3783;SDS011;1907;49.238;9.262;2022-12-07T06:07:48;7.87;;;7.57;;
3783;SDS011;1907;49.238;9.262;2022-12-07T06:10:14;28.23;;;8.60;;
3783;SDS011;1907;49.238;9.262;2022-12-07T06:12:39;8.43;;;7.93;;
3783;SDS011;1907;49.238;9.262;2022-12-07T06:15:07;10.00;;;9.40;;
3783;SDS011;1907;49.238;9.262;2022-12-07T06:17:34;8.27;;;7.97;;
3783;SDS011;1907;49.238;9.262;2022-12-07T06:20:00;14.47;;;8.83;;
3783;SDS011;1907;49.238;9.262;2022-12-07T06:22:26;9.80;;;9.20;;
3783;SDS011;1907;49.238;9.262;2022-12-07T06:24:51;9.70;;;8.73;;
3783;SDS011;1907;49.238;9.262;2022-12-07T06:27:17;9.37;;;8.97;;
3783;SDS011;1907;49.238;9.262;2022-12-07T06:29:42;12.50;;;11.40;;
3783;SDS011;1907;49.238;9.262;2022-12-07T06:32:08;11.17;;;10.33;;
3783;SDS011;1907;49.238;9.262;2022-12-07T06:34:34;10.20;;;9.43;;
3783;SDS011;1907;49.238;9.262;2022-12-07T06:37:00;9.10;;;8.70;;
3783;SDS011;1907;49.238;9.262;2022-12-07T06:39:26;9.93;;;9.13;;
3783;SDS011;1907;49.238;9.262;2022-12-07T06:41:53;10.13;;;9.47;;
3783;SDS011;1907;49.238;9.262;2022-12-07T06:44:19;11.70;;;10.73;;
3783;SDS011;1907;49.238;9.262;2022-12-07T06:46:45;8.20;;;7.90;;
3783;SDS011;1907;49.238;9.262;2022-12-07T06:49:11;10.33;;;9.47;;
3783;SDS011;1907;49.238;9.262;2022-12-07T06:51:36;16.53;;;10.43;;
3783;SDS011;1907;49.238;9.262;2022-12-07T06:54:06;9.63;;;8.50;;
3783;SDS011;1907;49.238;9.262;2022-12-07T06:56:32;14.23;;;10.40;;
3783;SDS011;1907;49.238;9.262;2022-12-07T06:58:57;10.50;;;9.90;;
3783;SDS011;1907;49.238;9.262;2022-12-07T07:01:23;9.03;;;8.47;;
3783;SDS011;1907;49.238;9.262;2022-12-07T07:03:49;9.70;;;8.13;;
3783;SDS011;1907;49.238;9.262;2022-12-07T07:06:14;9.33;;;8.80;;
3783;SDS011;1907;49.238;9.262;2022-12-07T07:08:40;9.47;;;8.97;;
3783;SDS011;1907;49.238;9.262;2022-12-07T07:11:06;9.60;;;8.80;;
3783;SDS011;1907;49.238;9.262;2022-12-07T07:13:32;8.00;;;7.57;;
3783;SDS011;1907;49.238;9.262;2022-12-07T07:15:58;12.17;;;11.27;;
3783;SDS011;1907;49.238;9.262;2022-12-07T07:18:25;13.47;;;12.37;;
3783;SDS011;1907;49.238;9.262;2022-12-07T07:20:51;14.83;;;11.47;;
3783;SDS011;1907;49.238;9.262;2022-12-07T07:23:17;31.13;;;23.77;;
3783;SDS011;1907;49.238;9.262;2022-12-07T07:25:43;11.43;;;10.50;;
3783;SDS011;1907;49.238;9.262;2022-12-07T07:28:09;13.17;;;11.23;;
3783;SDS011;1907;49.238;9.262;2022-12-07T07:30:35;9.20;;;8.70;;
3783;SDS011;1907;49.238;9.262;2022-12-07T07:33:01;9.67;;;9.17;;
3783;SDS011;1907;49.238;9.262;2022-12-07T07:35:27;10.33;;;9.00;;
3783;SDS011;1907;49.238;9.262;2022-12-07T07:37:54;9.60;;;8.93;;
3783;SDS011;1907;49.238;9.262;2022-12-07T07:40:20;8.83;;;8.53;;
3783;SDS011;1907;49.238;9.262;2022-12-07T07:42:47;10.67;;;9.57;;
3783;SDS011;1907;49.238;9.262;2022-12-07T07:45:13;9.15;;;8.45;;
3783;SDS011;1907;49.238;9.262;2022-12-07T07:47:39;12.20;;;11.20;;
3783;SDS011;1907;49.238;9.262;2022-12-07T07:50:05;8.90;;;8.50;;
3783;SDS011;1907;49.238;9.262;2022-12-07T07:52:31;9.67;;;8.97;;
3783;SDS011;1907;49.238;9.262;2022-12-07T07:54:57;9.97;;;9.20;;
3783;SDS011;1907;49.238;9.262;2022-12-07T07:57:22;10.13;;;8.93;;
3783;SDS011;1907;49.238;9.262;2022-12-07T07:59:48;9.80;;;9.30;;
3783;SDS011;1907;49.238;9.262;2022-12-07T08:02:15;8.60;;;8.17;;
3783;SDS011;1907;49.238;9.262;2022-12-07T08:04:43;9.03;;;8.60;;
3783;SDS011;1907;49.238;9.262;2022-12-07T08:07:09;8.03;;;7.53;;
3783;SDS011;1907;49.238;9.262;2022-12-07T08:09:35;10.33;;;9.43;;
3783;SDS011;1907;49.238;9.262;2022-12-07T08:12:01;8.83;;;8.33;;
3783;SDS011;1907;49.238;9.262;2022-12-07T08:14:26;11.23;;;10.10;;
3783;SDS011;1907;49.238;9.262;2022-12-07T08:16:53;9.17;;;8.83;;
3783;SDS011;1907;49.238;9.262;2022-12-07T08:19:19;9.57;;;8.60;;
3783;SDS011;1907;49.238;9.262;2022-12-07T08:21:45;7.53;;;7.10;;
3783;SDS011;1907;49.238;9.262;2022-12-07T08:24:10;8.77;;;8.03;;
3783;SDS011;1907;49.238;9.262;2022-12-07T08:26:36;9.17;;;8.67;;
3783;SDS011;1907;49.238;9.262;2022-12-07T08:29:02;9.07;;;8.50;;
3783;SDS011;1907;49.238;9.262;2022-12-07T08:31:28;11.00;;;10.40;;
3783;SDS011;1907;49.238;9.262;2022-12-07T08:33:53;9.60;;;9.00;;
3783;SDS011;1907;49.238;9.262;2022-12-07T08:36:19;9.37;;;8.87;;
3783;SDS011;1907;49.238;9.262;2022-12-07T08:38:46;9.10;;;8.63;;
3783;SDS011;1907;49.238;9.262;2022-12-07T08:41:12;9.23;;;8.73;;
3783;SDS011;1907;49.238;9.262;2022-12-07T08:43:37;8.70;;;8.10;;
3783;SDS011;1907;49.238;9.262;2022-12-07T08:46:08;10.60;;;9.87;;
3783;SDS011;1907;49.238;9.262;2022-12-07T08:48:39;9.63;;;9.20;;
3783;SDS011;1907;49.238;9.262;2022-12-07T08:51:08;7.87;;;7.50;;
3783;SDS011;1907;49.238;9.262;2022-12-07T08:53:35;8.53;;;8.03;;
3783;SDS011;1907;49.238;9.262;2022-12-07T08:56:03;9.10;;;8.70;;
3783;SDS011;1907;49.238;9.262;2022-12-07T08:58:29;10.93;;;10.33;;
3783;SDS011;1907;49.238;9.262;2022-12-07T09:00:55;9.53;;;9.13;;
3783;SDS011;1907;49.238;9.262;2022-12-07T09:03:21;8.40;;;7.80;;
3783;SDS011;1907;49.238;9.262;2022-12-07T09:05:46;10.67;;;10.17;;
3783;SDS011;1907;49.238;9.262;2022-12-07T09:08:12;10.07;;;9.10;;
3783;SDS011;1907;49.238;9.262;2022-12-07T09:10:37;11.20;;;10.20;;
3783;SDS011;1907;49.238;9.262;2022-12-07T09:13:03;14.20;;;12.80;;
3783;SDS011;1907;49.238;9.262;2022-12-07T09:15:29;8.90;;;8.50;;
3783;SDS011;1907;49.238;9.262;2022-12-07T09:17:56;10.40;;;9.43;;
3783;SDS011;1907;49.238;9.262;2022-12-07T09:20:21;10.20;;;9.53;;
3783;SDS011;1907;49.238;9.262;2022-12-07T09:22:47;9.50;;;8.97;;
3783;SDS011;1907;49.238;9.262;2022-12-07T09:25:13;9.20;;;8.60;;
3783;SDS011;1907;49.238;9.262;2022-12-07T09:27:39;9.93;;;9.40;;
3783;SDS011;1907;49.238;9.262;2022-12-07T09:30:05;10.47;;;9.03;;
3783;SDS011;1907;49.238;9.262;2022-12-07T09:32:31;10.50;;;9.57;;
3783;SDS011;1907;49.238;9.262;2022-12-07T09:34:57;8.73;;;7.97;;
3783;SDS011;1907;49.238;9.262;2022-12-07T09:37:22;9.43;;;8.60;;
3783;SDS011;1907;49.238;9.262;2022-12-07T09:39:48;10.10;;;9.43;;
3783;SDS011;1907;49.238;9.262;2022-12-07T09:42:19;9.60;;;9.20;;
3783;SDS011;1907;49.238;9.262;2022-12-07T09:44:51;12.03;;;10.80;;
3783;SDS011;1907;49.238;9.262;2022-12-07T09:47:16;8.90;;;8.50;;
3783;SDS011;1907;49.238;9.262;2022-12-07T09:49:42;9.50;;;9.00;;
3783;SDS011;1907;49.238;9.262;2022-12-07T09:54:34;9.47;;;8.87;;
3783;SDS011;1907;49.238;9.262;2022-12-07T09:57:02;8.20;;;7.80;;
3783;SDS011;1907;49.238;9.262;2022-12-07T09:59:28;11.77;;;10.77;;
3783;SDS011;1907;49.238;9.262;2022-12-07T10:01:54;9.07;;;8.67;;
3783;SDS011;1907;49.238;9.262;2022-12-07T10:04:21;9.00;;;8.07;;
3783;SDS011;1907;49.238;9.262;2022-12-07T10:06:49;8.40;;;8.00;;
3783;SDS011;1907;49.238;9.262;2022-12-07T10:09:17;9.07;;;8.57;;
3783;SDS011;1907;49.238;9.262;2022-12-07T10:15:03;14.40;;;9.33;;
3783;SDS011;1907;49.238;9.262;2022-12-07T10:17:35;8.10;;;7.80;;
3783;SDS011;1907;49.238;9.262;2022-12-07T10:22:37;10.07;;;9.20;;
3783;SDS011;1907;49.238;9.262;2022-12-07T10:25:17;8.63;;;8.17;;
3783;SDS011;1907;49.238;9.262;2022-12-07T10:27:44;10.83;;;10.10;;
3783;SDS011;1907;49.238;9.262;2022-12-07T10:30:26;8.40;;;7.90;;
3783;SDS011;1907;49.238;9.262;2022-12-07T10:32:52;9.07;;;8.60;;
3783;SDS011;1907;49.238;9.262;2022-12-07T10:35:25;11.67;;;10.50;;
3783;SDS011;1907;49.238;9.262;2022-12-07T10:37:55;8.73;;;8.23;;
3783;SDS011;1907;49.238;9.262;2022-12-07T10:40:25;8.53;;;8.13;;
3783;SDS011;1907;49.238;9.262;2022-12-07T10:54:44;49.17;;;36.50;;
3783;SDS011;1907;49.238;9.262;2022-12-07T10:56:51;15.07;;;13.97;;
3783;SDS011;1907;49.238;9.262;2022-12-07T11:02:35;9.63;;;9.20;;
3783;SDS011;1907;49.238;9.262;2022-12-07T11:07:56;10.93;;;9.97;;
3783;SDS011;1907;49.238;9.262;2022-12-07T11:13:39;9.23;;;8.53;;
3783;SDS011;1907;49.238;9.262;2022-12-07T11:19:01;9.43;;;8.83;;
3783;SDS011;1907;49.238;9.262;2022-12-07T11:21:56;7.37;;;7.00;;
3783;SDS011;1907;49.238;9.262;2022-12-07T11:35:16;6.93;;;6.63;;
3783;SDS011;1907;49.238;9.262;2022-12-07T11:38:07;8.70;;;8.30;;
3783;SDS011;1907;49.238;9.262;2022-12-07T11:40:39;7.60;;;7.10;;
3783;SDS011;1907;49.238;9.262;2022-12-07T11:43:13;8.40;;;8.10;;
3783;SDS011;1907;49.238;9.262;2022-12-07T11:46:23;8.03;;;7.63;;
3783;SDS011;1907;49.238;9.262;2022-12-07T11:51:19;10.07;;;9.00;;
3783;SDS011;1907;49.238;9.262;2022-12-07T11:53:52;9.27;;;8.77;;
3783;SDS011;1907;49.238;9.262;2022-12-07T11:56:25;9.63;;;8.97;;
3783;SDS011;1907;49.238;9.262;2022-12-07T12:01:39;7.93;;;7.53;;
3783;SDS011;1907;49.238;9.262;2022-12-07T12:07:05;8.40;;;8.00;;
3783;SDS011;1907;49.238;9.262;2022-12-07T12:09:36;9.00;;;8.50;;
3783;SDS011;1907;49.238;9.262;2022-12-07T12:12:23;6.67;;;6.37;;
3783;SDS011;1907;49.238;9.262;2022-12-07T12:17:40;8.63;;;8.17;;
3783;SDS011;1907;49.238;9.262;2022-12-07T12:20:26;9.83;;;9.20;;
3783;SDS011;1907;49.238;9.262;2022-12-07T12:28:02;9.10;;;8.60;;
3783;SDS011;1907;49.238;9.262;2022-12-07T12:30:35;9.00;;;8.60;;
3783;SDS011;1907;49.238;9.262;2022-12-07T12:33:04;9.43;;;8.77;;
3783;SDS011;1907;49.238;9.262;2022-12-07T12:35:44;8.67;;;8.17;;
3783;SDS011;1907;49.238;9.262;2022-12-07T12:38:23;8.80;;;8.30;;
3783;SDS011;1907;49.238;9.262;2022-12-07T12:40:50;10.33;;;8.20;;
3783;SDS011;1907;49.238;9.262;2022-12-07T12:51:44;9.67;;;9.07;;
3783;SDS011;1907;49.238;9.262;2022-12-07T13:01:44;8.63;;;8.23;;
3783;SDS011;1907;49.238;9.262;2022-12-07T13:06:49;10.83;;;9.57;;
3783;SDS011;1907;49.238;9.262;2022-12-07T13:09:24;9.37;;;8.87;;
3783;SDS011;1907;49.238;9.262;2022-12-07T13:12:02;9.10;;;8.50;;
3783;SDS011;1907;49.238;9.262;2022-12-07T13:17:10;8.53;;;8.17;;
3783;SDS011;1907;49.238;9.262;2022-12-07T13:28:02;13.47;;;9.10;;
3783;SDS011;1907;49.238;9.262;2022-12-07T13:30:38;10.20;;;9.50;;
3783;SDS011;1907;49.238;9.262;2022-12-07T13:33:14;8.53;;;8.10;;
3783;SDS011;1907;49.238;9.262;2022-12-07T13:35:42;8.80;;;8.30;;
3783;SDS011;1907;49.238;9.262;2022-12-07T13:38:21;7.90;;;7.40;;
3783;SDS011;1907;49.238;9.262;2022-12-07T13:43:45;8.53;;;8.10;;
3783;SDS011;1907;49.238;9.262;2022-12-07T13:46:14;14.00;;;8.43;;
3783;SDS011;1907;49.238;9.262;2022-12-07T13:48:46;9.00;;;8.27;;
3783;SDS011;1907;49.238;9.262;2022-12-07T13:51:18;9.90;;;9.33;;
3783;SDS011;1907;49.238;9.262;2022-12-07T13:53:46;8.87;;;8.30;;
3783;SDS011;1907;49.238;9.262;2022-12-07T13:56:14;10.10;;;8.40;;
3783;SDS011;1907;49.238;9.262;2022-12-07T13:58:41;9.30;;;8.40;;
3783;SDS011;1907;49.238;9.262;2022-12-07T14:01:07;8.23;;;7.67;;
3783;SDS011;1907;49.238;9.262;2022-12-07T14:03:34;9.80;;;9.27;;
3783;SDS011;1907;49.238;9.262;2022-12-07T14:06:15;15.53;;;9.97;;
3783;SDS011;1907;49.238;9.262;2022-12-07T14:08:43;9.97;;;9.40;;
3783;SDS011;1907;49.238;9.262;2022-12-07T14:11:17;14.17;;;10.30;;
3783;SDS011;1907;49.238;9.262;2022-12-07T14:16:30;9.60;;;9.00;;
3783;SDS011;1907;49.238;9.262;2022-12-07T14:18:59;9.37;;;8.70;;
3783;SDS011;1907;49.238;9.262;2022-12-07T14:21:28;8.77;;;8.37;;
3783;SDS011;1907;49.238;9.262;2022-12-07T14:26:39;8.83;;;8.33;;
3783;SDS011;1907;49.238;9.262;2022-12-07T14:29:18;11.27;;;10.17;;
3783;SDS011;1907;49.238;9.262;2022-12-07T14:31:49;9.33;;;8.83;;
3783;SDS011;1907;49.238;9.262;2022-12-07T14:34:16;9.53;;;9.13;;
3783;SDS011;1907;49.238;9.262;2022-12-07T14:36:44;10.67;;;9.90;;
3783;SDS011;1907;49.238;9.262;2022-12-07T14:39:09;12.70;;;11.80;;
3783;SDS011;1907;49.238;9.262;2022-12-07T14:41:35;25.93;;;18.20;;
3783;SDS011;1907;49.238;9.262;2022-12-07T14:44:16;30.37;;;20.80;;
3783;SDS011;1907;49.238;9.262;2022-12-07T14:46:47;12.83;;;11.97;;
3783;SDS011;1907;49.238;9.262;2022-12-07T14:49:14;11.57;;;10.87;;
3783;SDS011;1907;49.238;9.262;2022-12-07T14:51:40;11.03;;;10.43;;
3783;SDS011;1907;49.238;9.262;2022-12-07T14:54:09;11.00;;;10.40;;
3783;SDS011;1907;49.238;9.262;2022-12-07T14:56:40;12.30;;;11.37;;
3783;SDS011;1907;49.238;9.262;2022-12-07T14:59:07;11.30;;;10.40;;
3783;SDS011;1907;49.238;9.262;2022-12-07T15:01:32;10.93;;;10.43;;
3783;SDS011;1907;49.238;9.262;2022-12-07T15:03:58;11.90;;;10.97;;
3783;SDS011;1907;49.238;9.262;2022-12-07T15:06:24;11.03;;;10.10;;
3783;SDS011;1907;49.238;9.262;2022-12-07T15:08:49;9.33;;;8.63;;
3783;SDS011;1907;49.238;9.262;2022-12-07T15:11:15;10.27;;;9.73;;
3783;SDS011;1907;49.238;9.262;2022-12-07T15:13:42;9.47;;;8.87;;
3783;SDS011;1907;49.238;9.262;2022-12-07T15:16:26;11.07;;;10.37;;
3783;SDS011;1907;49.238;9.262;2022-12-07T15:18:52;10.53;;;10.00;;
3783;SDS011;1907;49.238;9.262;2022-12-07T15:21:18;10.50;;;10.00;;
3783;SDS011;1907;49.238;9.262;2022-12-07T15:23:44;10.10;;;9.60;;
3783;SDS011;1907;49.238;9.262;2022-12-07T15:26:11;9.67;;;9.10;;
3783;SDS011;1907;49.238;9.262;2022-12-07T15:28:37;11.23;;;10.43;;
3783;SDS011;1907;49.238;9.262;2022-12-07T15:31:02;11.40;;;10.80;;
3783;SDS011;1907;49.238;9.262;2022-12-07T15:33:28;11.70;;;10.93;;
3783;SDS011;1907;49.238;9.262;2022-12-07T15:35:54;8.77;;;8.03;;
3783;SDS011;1907;49.238;9.262;2022-12-07T15:38:19;11.23;;;10.43;;
3783;SDS011;1907;49.238;9.262;2022-12-07T15:40:48;12.80;;;11.60;;
3783;SDS011;1907;49.238;9.262;2022-12-07T15:43:14;10.30;;;9.60;;
3783;SDS011;1907;49.238;9.262;2022-12-07T15:45:58;9.00;;;8.40;;
3783;SDS011;1907;49.238;9.262;2022-12-07T15:48:24;13.67;;;9.53;;
3783;SDS011;1907;49.238;9.262;2022-12-07T15:50:50;12.23;;;11.47;;
3783;SDS011;1907;49.238;9.262;2022-12-07T15:53:15;10.63;;;10.03;;
3783;SDS011;1907;49.238;9.262;2022-12-07T15:55:41;11.80;;;10.73;;
3783;SDS011;1907;49.238;9.262;2022-12-07T15:58:06;10.03;;;9.40;;
3783;SDS011;1907;49.238;9.262;2022-12-07T16:00:32;11.00;;;10.20;;
3783;SDS011;1907;49.238;9.262;2022-12-07T16:02:58;12.73;;;10.50;;
3783;SDS011;1907;49.238;9.262;2022-12-07T16:05:23;10.13;;;9.50;;
3783;SDS011;1907;49.238;9.262;2022-12-07T16:07:49;13.77;;;12.67;;
3783;SDS011;1907;49.238;9.262;2022-12-07T16:10:15;16.20;;;12.80;;
3783;SDS011;1907;49.238;9.262;2022-12-07T16:12:40;13.60;;;12.37;;
3783;SDS011;1907;49.238;9.262;2022-12-07T16:15:06;13.43;;;12.63;;
3783;SDS011;1907;49.238;9.262;2022-12-07T16:17:32;13.37;;;12.33;;
3783;SDS011;1907;49.238;9.262;2022-12-07T16:19:58;15.00;;;13.67;;
3783;SDS011;1907;49.238;9.262;2022-12-07T16:22:23;13.40;;;12.50;;
3783;SDS011;1907;49.238;9.262;2022-12-07T16:24:49;13.27;;;11.97;;
3783;SDS011;1907;49.238;9.262;2022-12-07T16:27:14;10.97;;;9.93;;
3783;SDS011;1907;49.238;9.262;2022-12-07T16:29:40;11.90;;;11.20;;
3783;SDS011;1907;49.238;9.262;2022-12-07T16:32:05;10.53;;;9.80;;
3783;SDS011;1907;49.238;9.262;2022-12-07T16:34:31;12.40;;;11.57;;
3783;SDS011;1907;49.238;9.262;2022-12-07T16:36:57;12.23;;;11.43;;
3783;SDS011;1907;49.238;9.262;2022-12-07T16:39:22;17.37;;;15.47;;
3783;SDS011;1907;49.238;9.262;2022-12-07T16:41:49;13.07;;;12.07;;
3783;SDS011;1907;49.238;9.262;2022-12-07T16:44:15;13.90;;;12.47;;
3783;SDS011;1907;49.238;9.262;2022-12-07T16:46:41;12.23;;;11.47;;
3783;SDS011;1907;49.238;9.262;2022-12-07T16:49:10;13.10;;;12.30;;
3783;SDS011;1907;49.238;9.262;2022-12-07T16:51:37;13.07;;;12.07;;
3783;SDS011;1907;49.238;9.262;2022-12-07T16:54:04;15.63;;;14.60;;
3783;SDS011;1907;49.238;9.262;2022-12-07T16:56:29;16.07;;;14.57;;
3783;SDS011;1907;49.238;9.262;2022-12-07T16:58:57;15.03;;;13.90;;
3783;SDS011;1907;49.238;9.262;2022-12-07T17:01:23;16.20;;;14.70;;
3783;SDS011;1907;49.238;9.262;2022-12-07T17:03:48;13.30;;;12.50;;
3783;SDS011;1907;49.238;9.262;2022-12-07T17:06:24;16.10;;;14.50;;
3783;SDS011;1907;49.238;9.262;2022-12-07T17:08:51;33.23;;;22.17;;
3783;SDS011;1907;49.238;9.262;2022-12-07T17:11:18;19.77;;;17.90;;
3783;SDS011;1907;49.238;9.262;2022-12-07T17:13:45;23.73;;;20.70;;
3783;SDS011;1907;49.238;9.262;2022-12-07T17:16:30;16.17;;;14.77;;
3783;SDS011;1907;49.238;9.262;2022-12-07T17:18:56;18.73;;;16.77;;
3783;SDS011;1907;49.238;9.262;2022-12-07T17:21:22;15.00;;;13.73;;
3783;SDS011;1907;49.238;9.262;2022-12-07T17:23:48;15.17;;;13.70;;
3783;SDS011;1907;49.238;9.262;2022-12-07T17:26:19;16.17;;;14.70;;
3783;SDS011;1907;49.238;9.262;2022-12-07T17:28:46;18.03;;;16.13;;
3783;SDS011;1907;49.238;9.262;2022-12-07T17:31:13;21.87;;;18.97;;
3783;SDS011;1907;49.238;9.262;2022-12-07T17:33:40;17.53;;;15.87;;
3783;SDS011;1907;49.238;9.262;2022-12-07T17:36:28;15.47;;;14.07;;